sensor_id;sensor_type;location;lat;lon;timestamp;P1;durP1;ratioP1;P2;durP2;ratioP2
4569;SDS011;2297;51.442;6.996;2023-08-01T00:00:08;1.30;;;1.20;;
4569;SDS011;2297;51.442;6.996;2023-08-01T00:02:35;1.38;;;1.25;;
4569;SDS011;2297;51.442;6.996;2023-08-01T00:05:04;1.48;;;1.38;;
4569;SDS011;2297;51.442;6.996;2023-08-01T00:07:31;1.70;;;1.40;;
4569;SDS011;2297;51.442;6.996;2023-08-01T00:09:57;1.58;;;1.40;;
4569;SDS011;2297;51.442;6.996;2023-08-01T00:12:24;1.27;;;1.17;;
4569;SDS011;2297;51.442;6.996;2023-08-01T00:14:51;1.30;;;1.20;;
4569;SDS011;2297;51.442;6.996;2023-08-01T00:17:18;1.42;;;1.30;;
4569;SDS011;2297;51.442;6.996;2023-08-01T00:19:44;4.47;;;2.28;;
4569;SDS011;2297;51.442;6.996;2023-08-01T00:22:12;2.58;;;1.63;;
4569;SDS011;2297;51.442;6.996;2023-08-01T00:24:39;2.45;;;1.65;;
4569;SDS011;2297;51.442;6.996;2023-08-01T00:27:06;2.25;;;1.60;;
4569;SDS011;2297;51.442;6.996;2023-08-01T00:29:34;2.33;;;1.83;;
4569;SDS011;2297;51.442;6.996;2023-08-01T00:32:00;2.70;;;1.75;;
4569;SDS011;2297;51.442;6.996;2023-08-01T00:34:27;3.15;;;2.05;;
4569;SDS011;2297;51.442;6.996;2023-08-01T00:36:54;2.78;;;2.03;;
4569;SDS011;2297;51.442;6.996;2023-08-01T00:39:22;3.92;;;2.60;;
4569;SDS011;2297;51.442;6.996;2023-08-01T00:41:48;4.05;;;2.40;;
4569;SDS011;2297;51.442;6.996;2023-08-01T00:44:15;2.97;;;1.90;;
4569;SDS011;2297;51.442;6.996;2023-08-01T00:46:42;3.42;;;1.98;;
4569;SDS011;2297;51.442;6.996;2023-08-01T00:49:08;2.40;;;1.90;;
4569;SDS011;2297;51.442;6.996;2023-08-01T00:51:35;2.55;;;1.65;;
4569;SDS011;2297;51.442;6.996;2023-08-01T00:54:02;2.00;;;1.60;;
4569;SDS011;2297;51.442;6.996;2023-08-01T00:56:30;2.00;;;1.50;;
4569;SDS011;2297;51.442;6.996;2023-08-01T00:58:57;15.23;;;8.98;;
4569;SDS011;2297;51.442;6.996;2023-08-01T01:01:24;2.67;;;2.33;;
4569;SDS011;2297;51.442;6.996;2023-08-01T01:03:50;2.72;;;1.70;;
4569;SDS011;2297;51.442;6.996;2023-08-01T01:06:18;3.83;;;2.05;;
4569;SDS011;2297;51.442;6.996;2023-08-01T01:08:49;2.47;;;2.17;;
4569;SDS011;2297;51.442;6.996;2023-08-01T01:11:16;2.63;;;2.15;;
4569;SDS011;2297;51.442;6.996;2023-08-01T01:13:44;4.13;;;2.40;;
4569;SDS011;2297;51.442;6.996;2023-08-01T01:16:11;3.42;;;2.40;;
4569;SDS011;2297;51.442;6.996;2023-08-01T01:18:37;2.55;;;2.00;;
4569;SDS011;2297;51.442;6.996;2023-08-01T01:21:05;3.38;;;2.72;;
4569;SDS011;2297;51.442;6.996;2023-08-01T01:23:32;2.97;;;2.40;;
4569;SDS011;2297;51.442;6.996;2023-08-01T01:26:00;2.33;;;2.08;;
4569;SDS011;2297;51.442;6.996;2023-08-01T01:28:27;3.13;;;2.50;;
4569;SDS011;2297;51.442;6.996;2023-08-01T01:30:55;3.45;;;2.35;;
4569;SDS011;2297;51.442;6.996;2023-08-01T01:33:22;3.38;;;2.28;;
4569;SDS011;2297;51.442;6.996;2023-08-01T01:35:49;3.08;;;2.42;;
4569;SDS011;2297;51.442;6.996;2023-08-01T01:38:17;3.47;;;2.63;;
4569;SDS011;2297;51.442;6.996;2023-08-01T01:40:44;2.90;;;2.40;;
4569;SDS011;2297;51.442;6.996;2023-08-01T01:43:10;3.03;;;2.50;;
4569;SDS011;2297;51.442;6.996;2023-08-01T01:45:37;4.63;;;2.53;;
4569;SDS011;2297;51.442;6.996;2023-08-01T01:48:04;2.65;;;2.40;;
4569;SDS011;2297;51.442;6.996;2023-08-01T01:50:30;3.67;;;2.65;;
4569;SDS011;2297;51.442;6.996;2023-08-01T01:52:57;6.72;;;5.22;;
4569;SDS011;2297;51.442;6.996;2023-08-01T01:55:25;16.27;;;10.43;;
4569;SDS011;2297;51.442;6.996;2023-08-01T01:57:52;12.45;;;7.28;;
4569;SDS011;2297;51.442;6.996;2023-08-01T02:00:18;13.68;;;7.40;;
4569;SDS011;2297;51.442;6.996;2023-08-01T02:02:45;2.95;;;2.10;;
4569;SDS011;2297;51.442;6.996;2023-08-01T02:05:11;5.32;;;2.10;;
4569;SDS011;2297;51.442;6.996;2023-08-01T02:07:38;2.55;;;1.90;;
4569;SDS011;2297;51.442;6.996;2023-08-01T02:10:05;4.00;;;2.17;;
4569;SDS011;2297;51.442;6.996;2023-08-01T02:12:33;3.45;;;2.08;;
4569;SDS011;2297;51.442;6.996;2023-08-01T02:15:00;3.65;;;2.00;;
4569;SDS011;2297;51.442;6.996;2023-08-01T02:17:28;2.42;;;2.05;;
4569;SDS011;2297;51.442;6.996;2023-08-01T02:19:54;2.40;;;1.90;;
4569;SDS011;2297;51.442;6.996;2023-08-01T02:22:21;4.40;;;2.28;;
4569;SDS011;2297;51.442;6.996;2023-08-01T02:24:48;3.95;;;2.45;;
4569;SDS011;2297;51.442;6.996;2023-08-01T02:27:15;5.15;;;2.47;;
4569;SDS011;2297;51.442;6.996;2023-08-01T02:29:43;5.20;;;2.80;;
4569;SDS011;2297;51.442;6.996;2023-08-01T02:32:09;3.80;;;2.60;;
4569;SDS011;2297;51.442;6.996;2023-08-01T02:34:36;5.40;;;3.00;;
4569;SDS011;2297;51.442;6.996;2023-08-01T02:37:03;5.70;;;3.50;;
4569;SDS011;2297;51.442;6.996;2023-08-01T02:39:30;4.00;;;3.13;;
4569;SDS011;2297;51.442;6.996;2023-08-01T02:41:56;4.75;;;3.50;;
4569;SDS011;2297;51.442;6.996;2023-08-01T02:44:26;5.45;;;3.67;;
4569;SDS011;2297;51.442;6.996;2023-08-01T02:46:57;8.23;;;4.07;;
4569;SDS011;2297;51.442;6.996;2023-08-01T02:49:24;6.72;;;4.47;;
4569;SDS011;2297;51.442;6.996;2023-08-01T02:52:03;8.68;;;5.45;;
4569;SDS011;2297;51.442;6.996;2023-08-01T02:54:29;8.63;;;4.68;;
4569;SDS011;2297;51.442;6.996;2023-08-01T02:56:56;7.15;;;4.82;;
4569;SDS011;2297;51.442;6.996;2023-08-01T02:59:23;9.93;;;5.20;;
4569;SDS011;2297;51.442;6.996;2023-08-01T03:01:50;8.52;;;5.45;;
4569;SDS011;2297;51.442;6.996;2023-08-01T03:04:18;9.32;;;5.70;;
4569;SDS011;2297;51.442;6.996;2023-08-01T03:06:44;12.43;;;6.55;;
4569;SDS011;2297;51.442;6.996;2023-08-01T03:09:11;10.63;;;6.20;;
4569;SDS011;2297;51.442;6.996;2023-08-01T03:11:37;10.90;;;7.78;;
4569;SDS011;2297;51.442;6.996;2023-08-01T03:14:04;11.98;;;8.10;;
4569;SDS011;2297;51.442;6.996;2023-08-01T03:16:31;12.05;;;7.60;;
4569;SDS011;2297;51.442;6.996;2023-08-01T03:18:57;11.88;;;8.52;;
4569;SDS011;2297;51.442;6.996;2023-08-01T03:21:30;14.20;;;8.88;;
4569;SDS011;2297;51.442;6.996;2023-08-01T03:23:57;14.38;;;9.90;;
4569;SDS011;2297;51.442;6.996;2023-08-01T03:26:24;16.00;;;10.50;;
4569;SDS011;2297;51.442;6.996;2023-08-01T03:28:56;15.18;;;9.90;;
4569;SDS011;2297;51.442;6.996;2023-08-01T03:31:23;15.52;;;9.65;;
4569;SDS011;2297;51.442;6.996;2023-08-01T03:33:49;17.42;;;10.52;;
4569;SDS011;2297;51.442;6.996;2023-08-01T03:36:16;14.77;;;9.95;;
4569;SDS011;2297;51.442;6.996;2023-08-01T03:38:44;17.52;;;9.90;;
4569;SDS011;2297;51.442;6.996;2023-08-01T03:41:12;18.05;;;10.82;;
4569;SDS011;2297;51.442;6.996;2023-08-01T03:43:39;16.70;;;10.30;;
4569;SDS011;2297;51.442;6.996;2023-08-01T03:46:06;19.83;;;10.48;;
4569;SDS011;2297;51.442;6.996;2023-08-01T03:48:33;15.25;;;9.48;;
4569;SDS011;2297;51.442;6.996;2023-08-01T03:51:00;16.63;;;9.77;;
4569;SDS011;2297;51.442;6.996;2023-08-01T03:53:28;18.65;;;9.77;;
4569;SDS011;2297;51.442;6.996;2023-08-01T03:55:56;15.40;;;9.68;;
4569;SDS011;2297;51.442;6.996;2023-08-01T03:58:22;14.98;;;9.75;;
4569;SDS011;2297;51.442;6.996;2023-08-01T04:00:49;21.65;;;10.63;;
4569;SDS011;2297;51.442;6.996;2023-08-01T04:03:16;24.42;;;9.70;;
4569;SDS011;2297;51.442;6.996;2023-08-01T04:05:42;19.42;;;10.48;;
4569;SDS011;2297;51.442;6.996;2023-08-01T04:08:09;16.08;;;9.50;;
4569;SDS011;2297;51.442;6.996;2023-08-01T04:10:35;22.55;;;10.07;;
4569;SDS011;2297;51.442;6.996;2023-08-01T04:13:03;17.98;;;10.20;;
4569;SDS011;2297;51.442;6.996;2023-08-01T04:15:30;13.32;;;8.50;;
4569;SDS011;2297;51.442;6.996;2023-08-01T04:17:56;19.00;;;9.55;;
4569;SDS011;2297;51.442;6.996;2023-08-01T04:20:23;18.60;;;9.00;;
4569;SDS011;2297;51.442;6.996;2023-08-01T04:22:50;18.58;;;9.82;;
4569;SDS011;2297;51.442;6.996;2023-08-01T04:25:16;13.15;;;8.82;;
4569;SDS011;2297;51.442;6.996;2023-08-01T04:27:43;18.80;;;9.02;;
4569;SDS011;2297;51.442;6.996;2023-08-01T04:30:11;19.50;;;9.75;;
4569;SDS011;2297;51.442;6.996;2023-08-01T04:32:38;19.40;;;9.27;;
4569;SDS011;2297;51.442;6.996;2023-08-01T04:35:05;16.02;;;9.30;;
4569;SDS011;2297;51.442;6.996;2023-08-01T04:37:32;18.42;;;10.00;;
4569;SDS011;2297;51.442;6.996;2023-08-01T04:39:58;18.50;;;9.25;;
4569;SDS011;2297;51.442;6.996;2023-08-01T04:42:25;26.05;;;11.23;;
4569;SDS011;2297;51.442;6.996;2023-08-01T04:44:52;20.85;;;10.27;;
4569;SDS011;2297;51.442;6.996;2023-08-01T04:47:20;22.52;;;10.80;;
4569;SDS011;2297;51.442;6.996;2023-08-01T04:49:47;16.35;;;9.93;;
4569;SDS011;2297;51.442;6.996;2023-08-01T04:52:14;19.70;;;10.40;;
4569;SDS011;2297;51.442;6.996;2023-08-01T04:54:40;20.38;;;11.15;;
4569;SDS011;2297;51.442;6.996;2023-08-01T04:57:07;18.70;;;11.18;;
4569;SDS011;2297;51.442;6.996;2023-08-01T05:02:26;19.42;;;10.80;;
4569;SDS011;2297;51.442;6.996;2023-08-01T05:04:53;25.13;;;11.65;;
4569;SDS011;2297;51.442;6.996;2023-08-01T05:07:20;22.85;;;11.02;;
4569;SDS011;2297;51.442;6.996;2023-08-01T05:09:46;20.50;;;11.25;;
4569;SDS011;2297;51.442;6.996;2023-08-01T05:12:13;19.35;;;12.02;;
4569;SDS011;2297;51.442;6.996;2023-08-01T05:14:39;19.95;;;11.55;;
4569;SDS011;2297;51.442;6.996;2023-08-01T05:17:06;18.17;;;11.52;;
4569;SDS011;2297;51.442;6.996;2023-08-01T05:19:34;22.58;;;11.55;;
4569;SDS011;2297;51.442;6.996;2023-08-01T05:22:01;26.33;;;13.65;;
4569;SDS011;2297;51.442;6.996;2023-08-01T05:27:21;26.48;;;13.30;;
4569;SDS011;2297;51.442;6.996;2023-08-01T05:29:48;23.08;;;13.93;;
4569;SDS011;2297;51.442;6.996;2023-08-01T05:32:15;26.42;;;13.95;;
4569;SDS011;2297;51.442;6.996;2023-08-01T05:34:43;30.80;;;14.90;;
4569;SDS011;2297;51.442;6.996;2023-08-01T05:37:09;31.02;;;15.02;;
4569;SDS011;2297;51.442;6.996;2023-08-01T05:39:36;24.63;;;13.07;;
4569;SDS011;2297;51.442;6.996;2023-08-01T05:42:03;24.80;;;14.23;;
4569;SDS011;2297;51.442;6.996;2023-08-01T05:44:33;23.60;;;12.73;;
4569;SDS011;2297;51.442;6.996;2023-08-01T05:47:00;22.27;;;13.73;;
4569;SDS011;2297;51.442;6.996;2023-08-01T05:49:26;24.80;;;13.98;;
4569;SDS011;2297;51.442;6.996;2023-08-01T05:51:56;23.58;;;14.00;;
4569;SDS011;2297;51.442;6.996;2023-08-01T05:54:23;29.02;;;15.05;;
4569;SDS011;2297;51.442;6.996;2023-08-01T05:56:49;21.95;;;13.77;;
4569;SDS011;2297;51.442;6.996;2023-08-01T05:59:16;26.05;;;13.75;;
4569;SDS011;2297;51.442;6.996;2023-08-01T06:01:43;28.75;;;14.70;;
4569;SDS011;2297;51.442;6.996;2023-08-01T06:04:09;21.48;;;13.80;;
4569;SDS011;2297;51.442;6.996;2023-08-01T06:06:36;26.40;;;14.73;;
4569;SDS011;2297;51.442;6.996;2023-08-01T06:09:04;25.45;;;14.40;;
4569;SDS011;2297;51.442;6.996;2023-08-01T06:11:31;24.45;;;13.45;;
4569;SDS011;2297;51.442;6.996;2023-08-01T06:13:58;23.90;;;13.40;;
4569;SDS011;2297;51.442;6.996;2023-08-01T06:16:25;27.52;;;13.98;;
4569;SDS011;2297;51.442;6.996;2023-08-01T06:18:51;22.65;;;13.18;;
4569;SDS011;2297;51.442;6.996;2023-08-01T06:21:18;19.50;;;11.90;;
4569;SDS011;2297;51.442;6.996;2023-08-01T06:23:45;23.45;;;13.10;;
4569;SDS011;2297;51.442;6.996;2023-08-01T06:26:13;23.75;;;13.43;;
4569;SDS011;2297;51.442;6.996;2023-08-01T06:28:40;23.73;;;12.80;;
4569;SDS011;2297;51.442;6.996;2023-08-01T06:31:07;25.27;;;13.82;;
4569;SDS011;2297;51.442;6.996;2023-08-01T06:33:33;22.50;;;13.60;;
4569;SDS011;2297;51.442;6.996;2023-08-01T06:36:00;27.10;;;13.93;;
4569;SDS011;2297;51.442;6.996;2023-08-01T06:38:27;24.38;;;13.75;;
4569;SDS011;2297;51.442;6.996;2023-08-01T06:40:53;24.55;;;13.63;;
4569;SDS011;2297;51.442;6.996;2023-08-01T06:43:21;22.00;;;12.43;;
4569;SDS011;2297;51.442;6.996;2023-08-01T06:45:49;24.65;;;13.35;;
4569;SDS011;2297;51.442;6.996;2023-08-01T06:48:16;21.63;;;12.90;;
4569;SDS011;2297;51.442;6.996;2023-08-01T06:50:42;23.70;;;13.25;;
4569;SDS011;2297;51.442;6.996;2023-08-01T06:53:09;24.50;;;12.60;;
4569;SDS011;2297;51.442;6.996;2023-08-01T06:55:36;22.05;;;13.02;;
4569;SDS011;2297;51.442;6.996;2023-08-01T06:58:02;24.30;;;12.70;;
4569;SDS011;2297;51.442;6.996;2023-08-01T07:00:30;19.63;;;11.82;;
4569;SDS011;2297;51.442;6.996;2023-08-01T07:02:57;22.05;;;11.07;;
4569;SDS011;2297;51.442;6.996;2023-08-01T07:05:24;23.10;;;11.25;;
4569;SDS011;2297;51.442;6.996;2023-08-01T07:07:50;20.75;;;11.13;;
4569;SDS011;2297;51.442;6.996;2023-08-01T07:10:17;21.63;;;11.52;;
4569;SDS011;2297;51.442;6.996;2023-08-01T07:12:44;19.75;;;11.00;;
4569;SDS011;2297;51.442;6.996;2023-08-01T07:15:10;18.90;;;10.35;;
4569;SDS011;2297;51.442;6.996;2023-08-01T07:17:39;16.95;;;10.10;;
4569;SDS011;2297;51.442;6.996;2023-08-01T07:20:05;19.23;;;10.48;;
4569;SDS011;2297;51.442;6.996;2023-08-01T07:22:32;25.25;;;11.02;;
4569;SDS011;2297;51.442;6.996;2023-08-01T07:24:59;19.95;;;10.85;;
4569;SDS011;2297;51.442;6.996;2023-08-01T07:27:26;19.35;;;10.93;;
4569;SDS011;2297;51.442;6.996;2023-08-01T07:29:52;12.85;;;9.15;;
4569;SDS011;2297;51.442;6.996;2023-08-01T07:32:19;17.95;;;9.80;;
4569;SDS011;2297;51.442;6.996;2023-08-01T07:34:47;17.08;;;8.77;;
4569;SDS011;2297;51.442;6.996;2023-08-01T07:37:14;16.98;;;8.82;;
4569;SDS011;2297;51.442;6.996;2023-08-01T07:39:40;18.73;;;8.18;;
4569;SDS011;2297;51.442;6.996;2023-08-01T07:42:07;18.75;;;8.90;;
4569;SDS011;2297;51.442;6.996;2023-08-01T07:44:33;15.65;;;8.05;;
4569;SDS011;2297;51.442;6.996;2023-08-01T07:47:00;13.20;;;7.80;;
4569;SDS011;2297;51.442;6.996;2023-08-01T07:49:27;18.02;;;8.70;;
4569;SDS011;2297;51.442;6.996;2023-08-01T07:51:55;16.25;;;8.50;;
4569;SDS011;2297;51.442;6.996;2023-08-01T07:54:21;16.40;;;8.98;;
4569;SDS011;2297;51.442;6.996;2023-08-01T07:56:49;16.80;;;9.25;;
4569;SDS011;2297;51.442;6.996;2023-08-01T07:59:16;16.30;;;8.70;;
4569;SDS011;2297;51.442;6.996;2023-08-01T08:01:43;16.23;;;8.57;;
4569;SDS011;2297;51.442;6.996;2023-08-01T08:04:09;17.63;;;8.70;;
4569;SDS011;2297;51.442;6.996;2023-08-01T08:06:36;19.27;;;8.82;;
4569;SDS011;2297;51.442;6.996;2023-08-01T08:09:04;18.30;;;8.70;;
4569;SDS011;2297;51.442;6.996;2023-08-01T08:11:30;15.63;;;8.20;;
4569;SDS011;2297;51.442;6.996;2023-08-01T08:13:58;19.92;;;8.57;;
4569;SDS011;2297;51.442;6.996;2023-08-01T08:16:25;14.55;;;9.25;;
4569;SDS011;2297;51.442;6.996;2023-08-01T08:18:52;15.25;;;8.68;;
4569;SDS011;2297;51.442;6.996;2023-08-01T08:21:19;18.15;;;8.93;;
4569;SDS011;2297;51.442;6.996;2023-08-01T08:23:45;14.48;;;7.80;;
4569;SDS011;2297;51.442;6.996;2023-08-01T08:26:14;17.52;;;7.75;;
4569;SDS011;2297;51.442;6.996;2023-08-01T08:28:41;15.88;;;7.88;;
4569;SDS011;2297;51.442;6.996;2023-08-01T08:31:08;15.70;;;8.05;;
4569;SDS011;2297;51.442;6.996;2023-08-01T08:33:35;16.75;;;9.02;;
4569;SDS011;2297;51.442;6.996;2023-08-01T08:36:01;17.42;;;8.88;;
4569;SDS011;2297;51.442;6.996;2023-08-01T08:38:28;15.40;;;7.75;;
4569;SDS011;2297;51.442;6.996;2023-08-01T08:41:01;14.00;;;8.30;;
4569;SDS011;2297;51.442;6.996;2023-08-01T08:43:35;16.55;;;7.53;;
4569;SDS011;2297;51.442;6.996;2023-08-01T08:46:03;17.30;;;7.25;;
4569;SDS011;2297;51.442;6.996;2023-08-01T08:48:31;16.95;;;8.20;;
4569;SDS011;2297;51.442;6.996;2023-08-01T08:50:59;14.80;;;8.15;;
4569;SDS011;2297;51.442;6.996;2023-08-01T08:53:27;12.10;;;7.47;;
4569;SDS011;2297;51.442;6.996;2023-08-01T08:55:54;11.65;;;7.25;;
4569;SDS011;2297;51.442;6.996;2023-08-01T08:58:21;12.48;;;7.15;;
4569;SDS011;2297;51.442;6.996;2023-08-01T09:00:49;10.98;;;6.82;;
4569;SDS011;2297;51.442;6.996;2023-08-01T09:03:16;13.77;;;7.25;;
4569;SDS011;2297;51.442;6.996;2023-08-01T09:05:44;11.57;;;6.43;;
4569;SDS011;2297;51.442;6.996;2023-08-01T09:08:15;12.52;;;6.47;;
4569;SDS011;2297;51.442;6.996;2023-08-01T09:10:44;13.93;;;6.53;;
4569;SDS011;2297;51.442;6.996;2023-08-01T09:13:12;16.20;;;6.30;;
4569;SDS011;2297;51.442;6.996;2023-08-01T09:18:34;10.13;;;5.85;;
4569;SDS011;2297;51.442;6.996;2023-08-01T09:21:01;14.07;;;6.28;;
4569;SDS011;2297;51.442;6.996;2023-08-01T09:23:29;8.18;;;5.82;;
4569;SDS011;2297;51.442;6.996;2023-08-01T09:25:57;13.52;;;5.75;;
4569;SDS011;2297;51.442;6.996;2023-08-01T09:28:23;13.10;;;5.93;;
4569;SDS011;2297;51.442;6.996;2023-08-01T09:30:52;14.23;;;6.10;;
4569;SDS011;2297;51.442;6.996;2023-08-01T09:33:22;8.15;;;4.85;;
4569;SDS011;2297;51.442;6.996;2023-08-01T09:35:50;10.18;;;4.82;;
4569;SDS011;2297;51.442;6.996;2023-08-01T09:38:17;11.68;;;5.35;;
4569;SDS011;2297;51.442;6.996;2023-08-01T09:40:45;9.60;;;4.93;;
4569;SDS011;2297;51.442;6.996;2023-08-01T09:43:12;12.45;;;5.35;;
4569;SDS011;2297;51.442;6.996;2023-08-01T09:45:48;13.35;;;5.30;;
4569;SDS011;2297;51.442;6.996;2023-08-01T09:48:22;11.55;;;5.20;;
4569;SDS011;2297;51.442;6.996;2023-08-01T09:50:50;8.43;;;4.93;;
4569;SDS011;2297;51.442;6.996;2023-08-01T09:53:17;9.52;;;4.75;;
4569;SDS011;2297;51.442;6.996;2023-08-01T09:55:44;6.15;;;3.92;;
4569;SDS011;2297;51.442;6.996;2023-08-01T09:58:14;6.25;;;3.92;;
4569;SDS011;2297;51.442;6.996;2023-08-01T10:00:47;8.15;;;4.38;;
4569;SDS011;2297;51.442;6.996;2023-08-01T10:03:16;9.63;;;4.90;;
4569;SDS011;2297;51.442;6.996;2023-08-01T10:05:44;9.02;;;4.70;;
4569;SDS011;2297;51.442;6.996;2023-08-01T10:08:11;10.35;;;4.75;;
4569;SDS011;2297;51.442;6.996;2023-08-01T10:10:39;10.30;;;5.25;;
4569;SDS011;2297;51.442;6.996;2023-08-01T10:13:07;10.43;;;5.40;;
4569;SDS011;2297;51.442;6.996;2023-08-01T10:15:35;8.00;;;4.38;;
4569;SDS011;2297;51.442;6.996;2023-08-01T10:18:02;9.13;;;5.10;;
4569;SDS011;2297;51.442;6.996;2023-08-01T10:20:30;8.98;;;4.43;;
4569;SDS011;2297;51.442;6.996;2023-08-01T10:22:59;6.90;;;3.85;;
4569;SDS011;2297;51.442;6.996;2023-08-01T10:25:26;6.75;;;3.78;;
4569;SDS011;2297;51.442;6.996;2023-08-01T10:28:00;5.80;;;3.90;;
4569;SDS011;2297;51.442;6.996;2023-08-01T10:30:27;6.75;;;4.55;;
4569;SDS011;2297;51.442;6.996;2023-08-01T10:32:55;11.40;;;5.30;;
4569;SDS011;2297;51.442;6.996;2023-08-01T10:35:31;10.82;;;4.53;;
4569;SDS011;2297;51.442;6.996;2023-08-01T10:38:04;12.15;;;4.55;;
4569;SDS011;2297;51.442;6.996;2023-08-01T10:40:32;7.93;;;4.78;;
4569;SDS011;2297;51.442;6.996;2023-08-01T10:43:00;9.88;;;4.28;;
4569;SDS011;2297;51.442;6.996;2023-08-01T10:45:26;8.30;;;4.00;;
4569;SDS011;2297;51.442;6.996;2023-08-01T10:47:54;10.25;;;3.67;;
4569;SDS011;2297;51.442;6.996;2023-08-01T10:50:32;6.72;;;4.30;;
4569;SDS011;2297;51.442;6.996;2023-08-01T10:53:02;7.10;;;4.20;;
4569;SDS011;2297;51.442;6.996;2023-08-01T10:55:41;15.30;;;5.90;;
4569;SDS011;2297;51.442;6.996;2023-08-01T10:58:09;5.63;;;4.00;;
4569;SDS011;2297;51.442;6.996;2023-08-01T11:00:37;9.40;;;5.45;;
4569;SDS011;2297;51.442;6.996;2023-08-01T11:03:05;16.02;;;5.68;;
4569;SDS011;2297;51.442;6.996;2023-08-01T11:05:31;9.93;;;5.68;;
4569;SDS011;2297;51.442;6.996;2023-08-01T11:07:58;9.55;;;6.30;;
4569;SDS011;2297;51.442;6.996;2023-08-01T11:10:28;16.60;;;7.28;;
4569;SDS011;2297;51.442;6.996;2023-08-01T11:12:56;13.48;;;7.72;;
4569;SDS011;2297;51.442;6.996;2023-08-01T11:15:25;19.92;;;8.35;;
4569;SDS011;2297;51.442;6.996;2023-08-01T11:17:52;19.02;;;7.75;;
4569;SDS011;2297;51.442;6.996;2023-08-01T11:20:21;11.25;;;6.90;;
4569;SDS011;2297;51.442;6.996;2023-08-01T11:22:50;13.35;;;6.82;;
4569;SDS011;2297;51.442;6.996;2023-08-01T11:25:19;14.73;;;7.63;;
4569;SDS011;2297;51.442;6.996;2023-08-01T11:27:47;15.20;;;7.70;;
4569;SDS011;2297;51.442;6.996;2023-08-01T11:30:14;15.18;;;7.57;;
4569;SDS011;2297;51.442;6.996;2023-08-01T11:32:41;10.88;;;6.68;;
4569;SDS011;2297;51.442;6.996;2023-08-01T11:35:08;11.13;;;7.18;;
4569;SDS011;2297;51.442;6.996;2023-08-01T11:37:34;12.35;;;6.75;;
4569;SDS011;2297;51.442;6.996;2023-08-01T11:40:01;11.13;;;6.50;;
4569;SDS011;2297;51.442;6.996;2023-08-01T11:42:32;8.82;;;5.65;;
4569;SDS011;2297;51.442;6.996;2023-08-01T11:45:10;10.98;;;5.90;;
4569;SDS011;2297;51.442;6.996;2023-08-01T11:47:38;11.93;;;5.80;;
4569;SDS011;2297;51.442;6.996;2023-08-01T11:50:11;10.33;;;5.67;;
4569;SDS011;2297;51.442;6.996;2023-08-01T11:52:38;12.52;;;5.97;;
4569;SDS011;2297;51.442;6.996;2023-08-01T11:55:05;11.68;;;5.90;;
4569;SDS011;2297;51.442;6.996;2023-08-01T11:57:32;11.75;;;5.72;;
4569;SDS011;2297;51.442;6.996;2023-08-01T11:59:59;8.50;;;6.10;;
4569;SDS011;2297;51.442;6.996;2023-08-01T12:02:28;11.07;;;6.75;;
4569;SDS011;2297;51.442;6.996;2023-08-01T12:04:55;10.98;;;5.82;;
4569;SDS011;2297;51.442;6.996;2023-08-01T12:07:24;11.98;;;6.07;;
4569;SDS011;2297;51.442;6.996;2023-08-01T12:09:55;7.55;;;5.47;;
4569;SDS011;2297;51.442;6.996;2023-08-01T12:12:22;8.00;;;4.65;;
4569;SDS011;2297;51.442;6.996;2023-08-01T12:14:49;8.25;;;4.88;;
4569;SDS011;2297;51.442;6.996;2023-08-01T12:17:16;9.88;;;4.55;;
4569;SDS011;2297;51.442;6.996;2023-08-01T12:19:44;7.82;;;4.65;;
4569;SDS011;2297;51.442;6.996;2023-08-01T12:22:11;13.15;;;4.95;;
4569;SDS011;2297;51.442;6.996;2023-08-01T12:24:38;8.48;;;4.78;;
4569;SDS011;2297;51.442;6.996;2023-08-01T12:27:05;14.93;;;5.18;;
4569;SDS011;2297;51.442;6.996;2023-08-01T12:29:33;8.50;;;5.03;;
4569;SDS011;2297;51.442;6.996;2023-08-01T12:32:01;9.30;;;4.90;;
4569;SDS011;2297;51.442;6.996;2023-08-01T12:34:28;8.43;;;5.18;;
4569;SDS011;2297;51.442;6.996;2023-08-01T12:36:55;10.63;;;5.65;;
4569;SDS011;2297;51.442;6.996;2023-08-01T12:39:22;11.45;;;5.55;;
4569;SDS011;2297;51.442;6.996;2023-08-01T12:41:51;11.65;;;5.47;;
4569;SDS011;2297;51.442;6.996;2023-08-01T12:44:17;10.48;;;4.90;;
4569;SDS011;2297;51.442;6.996;2023-08-01T12:46:44;7.85;;;5.10;;
4569;SDS011;2297;51.442;6.996;2023-08-01T12:49:22;7.43;;;4.50;;
4569;SDS011;2297;51.442;6.996;2023-08-01T12:51:49;9.80;;;4.45;;
4569;SDS011;2297;51.442;6.996;2023-08-01T12:54:17;10.75;;;4.50;;
4569;SDS011;2297;51.442;6.996;2023-08-01T12:56:43;9.77;;;4.40;;
4569;SDS011;2297;51.442;6.996;2023-08-01T12:59:10;9.18;;;4.65;;
4569;SDS011;2297;51.442;6.996;2023-08-01T13:01:37;9.55;;;3.85;;
4569;SDS011;2297;51.442;6.996;2023-08-01T13:04:04;8.93;;;4.10;;
4569;SDS011;2297;51.442;6.996;2023-08-01T13:06:31;7.05;;;3.35;;
4569;SDS011;2297;51.442;6.996;2023-08-01T13:08:58;5.82;;;2.65;;
4569;SDS011;2297;51.442;6.996;2023-08-01T13:11:26;9.70;;;3.08;;
4569;SDS011;2297;51.442;6.996;2023-08-01T13:13:53;5.43;;;2.80;;
4569;SDS011;2297;51.442;6.996;2023-08-01T13:16:19;5.28;;;2.90;;
4569;SDS011;2297;51.442;6.996;2023-08-01T13:18:46;8.18;;;3.05;;
4569;SDS011;2297;51.442;6.996;2023-08-01T13:21:13;6.55;;;2.42;;
4569;SDS011;2297;51.442;6.996;2023-08-01T13:23:40;7.63;;;2.20;;
4569;SDS011;2297;51.442;6.996;2023-08-01T13:26:06;9.50;;;2.63;;
4569;SDS011;2297;51.442;6.996;2023-08-01T13:28:35;7.78;;;2.80;;
4569;SDS011;2297;51.442;6.996;2023-08-01T13:31:01;6.50;;;2.50;;
4569;SDS011;2297;51.442;6.996;2023-08-01T13:33:28;5.97;;;2.80;;
4569;SDS011;2297;51.442;6.996;2023-08-01T13:35:54;5.95;;;2.75;;
4569;SDS011;2297;51.442;6.996;2023-08-01T13:38:22;5.95;;;2.35;;
4569;SDS011;2297;51.442;6.996;2023-08-01T13:40:49;8.73;;;3.33;;
4569;SDS011;2297;51.442;6.996;2023-08-01T13:43:16;6.40;;;2.80;;
4569;SDS011;2297;51.442;6.996;2023-08-01T13:45:44;8.95;;;3.38;;
4569;SDS011;2297;51.442;6.996;2023-08-01T13:48:10;6.00;;;2.72;;
4569;SDS011;2297;51.442;6.996;2023-08-01T13:50:37;5.47;;;2.80;;
4569;SDS011;2297;51.442;6.996;2023-08-01T13:53:03;5.72;;;2.50;;
4569;SDS011;2297;51.442;6.996;2023-08-01T13:55:32;6.93;;;2.90;;
4569;SDS011;2297;51.442;6.996;2023-08-01T13:57:59;6.18;;;2.88;;
4569;SDS011;2297;51.442;6.996;2023-08-01T14:00:25;8.80;;;2.80;;
4569;SDS011;2297;51.442;6.996;2023-08-01T14:02:53;6.40;;;2.67;;
4569;SDS011;2297;51.442;6.996;2023-08-01T14:05:21;8.77;;;2.90;;
4569;SDS011;2297;51.442;6.996;2023-08-01T14:07:47;7.03;;;3.15;;
4569;SDS011;2297;51.442;6.996;2023-08-01T14:10:14;6.30;;;3.10;;
4569;SDS011;2297;51.442;6.996;2023-08-01T14:12:41;7.05;;;2.47;;
4569;SDS011;2297;51.442;6.996;2023-08-01T14:15:08;6.05;;;2.55;;
4569;SDS011;2297;51.442;6.996;2023-08-01T14:17:35;6.20;;;2.47;;
4569;SDS011;2297;51.442;6.996;2023-08-01T14:20:04;4.45;;;2.38;;
4569;SDS011;2297;51.442;6.996;2023-08-01T14:22:32;5.43;;;2.28;;
4569;SDS011;2297;51.442;6.996;2023-08-01T14:24:59;9.60;;;2.40;;
4569;SDS011;2297;51.442;6.996;2023-08-01T14:27:26;14.35;;;3.30;;
4569;SDS011;2297;51.442;6.996;2023-08-01T14:29:52;8.02;;;2.53;;
4569;SDS011;2297;51.442;6.996;2023-08-01T14:32:19;9.10;;;2.92;;
4569;SDS011;2297;51.442;6.996;2023-08-01T14:34:46;5.40;;;2.47;;
4569;SDS011;2297;51.442;6.996;2023-08-01T14:37:14;6.78;;;2.60;;
4569;SDS011;2297;51.442;6.996;2023-08-01T14:39:40;4.93;;;2.30;;
4569;SDS011;2297;51.442;6.996;2023-08-01T14:42:07;6.90;;;2.33;;
4569;SDS011;2297;51.442;6.996;2023-08-01T14:44:34;8.25;;;2.22;;
4569;SDS011;2297;51.442;6.996;2023-08-01T14:47:00;5.88;;;2.40;;
4569;SDS011;2297;51.442;6.996;2023-08-01T14:49:27;8.15;;;2.45;;
4569;SDS011;2297;51.442;6.996;2023-08-01T14:51:54;11.93;;;4.35;;
4569;SDS011;2297;51.442;6.996;2023-08-01T14:54:22;5.93;;;3.05;;
4569;SDS011;2297;51.442;6.996;2023-08-01T14:56:50;7.18;;;2.08;;
4569;SDS011;2297;51.442;6.996;2023-08-01T14:59:17;4.65;;;2.20;;
4569;SDS011;2297;51.442;6.996;2023-08-01T15:01:43;5.07;;;2.10;;
4569;SDS011;2297;51.442;6.996;2023-08-01T15:04:10;9.05;;;2.33;;
4569;SDS011;2297;51.442;6.996;2023-08-01T15:06:37;5.38;;;2.55;;
4569;SDS011;2297;51.442;6.996;2023-08-01T15:09:03;9.02;;;2.20;;
4569;SDS011;2297;51.442;6.996;2023-08-01T15:11:31;5.70;;;1.95;;
4569;SDS011;2297;51.442;6.996;2023-08-01T15:13:58;6.07;;;2.17;;